createdAt,value
2018-07-08T00:01:30.592Z,16.19
2018-07-08T00:03:59.176Z,16.18
2018-07-08T00:06:27.751Z,16.20
2018-07-08T00:08:56.324Z,16.22
2018-07-08T00:11:28.813Z,16.23
2018-07-08T00:13:57.471Z,16.19
2018-07-08T00:16:26.018Z,16.24
2018-07-08T00:18:54.621Z,16.16
2018-07-08T00:21:23.230Z,16.10
2018-07-08T00:23:57.774Z,15.96
2018-07-08T00:26:26.411Z,15.88
2018-07-08T00:28:55.215Z,15.85
2018-07-08T00:31:23.776Z,15.82
2018-07-08T00:33:52.637Z,15.91
2018-07-08T00:36:21.209Z,15.96
2018-07-08T00:38:49.747Z,15.99
2018-07-08T00:41:18.309Z,15.94
2018-07-08T00:43:46.795Z,15.98
2018-07-08T00:46:15.372Z,15.89
2018-07-08T00:48:43.917Z,15.84
2018-07-08T00:51:12.456Z,15.73
2018-07-08T00:53:40.995Z,15.78
2018-07-08T00:56:09.577Z,15.74
2018-07-08T00:58:38.145Z,15.71
2018-07-08T01:01:06.745Z,15.82
2018-07-08T01:03:35.380Z,15.78
2018-07-08T01:06:04.033Z,15.59
2018-07-08T01:08:32.625Z,15.51
2018-07-08T01:11:02.963Z,15.53
2018-07-08T01:13:31.594Z,15.47
2018-07-08T01:16:00.125Z,15.45
2018-07-08T01:18:28.701Z,15.39
2018-07-08T01:20:57.265Z,15.43
2018-07-08T01:23:25.816Z,15.41
2018-07-08T01:26:06.027Z,15.44
2018-07-08T01:28:34.629Z,15.54
2018-07-08T01:31:03.180Z,15.57
2018-07-08T01:33:31.789Z,15.35
2018-07-08T01:36:00.369Z,15.08
2018-07-08T01:38:28.956Z,14.90
2018-07-08T01:40:57.851Z,14.75
2018-07-08T01:43:26.562Z,14.65
2018-07-08T01:45:55.220Z,14.38
2018-07-08T01:48:23.762Z,14.40
2018-07-08T01:50:52.330Z,14.55
2018-07-08T01:53:21.954Z,14.54
2018-07-08T01:55:50.681Z,14.48
2018-07-08T01:58:19.257Z,14.31
2018-07-08T02:00:47.952Z,14.31
2018-07-08T02:03:16.812Z,14.45
2018-07-08T02:05:45.363Z,14.56
2018-07-08T02:08:14.263Z,14.58
2018-07-08T02:10:42.908Z,14.54
2018-07-08T02:13:11.560Z,14.56
2018-07-08T02:15:41.901Z,14.60
2018-07-08T02:18:10.492Z,14.57
2018-07-08T02:20:40.068Z,14.65
2018-07-08T02:23:08.649Z,14.67
2018-07-08T02:25:37.533Z,14.66
2018-07-08T02:28:08.594Z,14.82
2018-07-08T02:30:37.183Z,14.68
2018-07-08T02:33:05.867Z,14.82
2018-07-08T02:35:35.070Z,14.89
2018-07-08T02:38:03.675Z,14.97
2018-07-08T02:40:32.269Z,14.99
2018-07-08T02:43:00.865Z,15.00
2018-07-08T02:45:29.474Z,15.10
2018-07-08T02:47:58.089Z,15.14
2018-07-08T02:50:26.661Z,15.08
2018-07-08T02:52:55.279Z,15.09
2018-07-08T02:55:23.809Z,15.06
2018-07-08T02:57:52.397Z,15.14
2018-07-08T03:00:21.030Z,15.24
2018-07-08T03:02:49.633Z,15.08
2018-07-08T03:05:18.226Z,15.00
2018-07-08T03:07:46.795Z,14.82
2018-07-08T03:10:16.029Z,14.79
2018-07-08T03:12:44.653Z,14.79
2018-07-08T03:15:13.264Z,14.65
2018-07-08T03:17:41.857Z,14.62
2018-07-08T03:20:10.441Z,14.64
2018-07-08T03:22:38.983Z,14.65
2018-07-08T03:25:07.637Z,14.59
2018-07-08T03:27:36.185Z,14.65
2018-07-08T03:30:04.789Z,14.69
2018-07-08T03:32:33.365Z,14.73
2018-07-08T03:35:01.906Z,14.82
2018-07-08T03:37:30.491Z,14.90
2018-07-08T03:39:59.106Z,14.91
2018-07-08T03:42:27.676Z,14.96
2018-07-08T03:44:57.075Z,15.08
2018-07-08T03:47:25.632Z,15.17
2018-07-08T03:49:54.237Z,15.07
2018-07-08T03:52:24.472Z,14.99
2018-07-08T03:54:53.065Z,15.03
2018-07-08T03:57:21.629Z,14.88
2018-07-08T03:59:50.237Z,14.93
2018-07-08T04:02:18.785Z,14.85
2018-07-08T04:04:47.342Z,14.91
2018-07-08T04:07:15.871Z,15.02
2018-07-08T04:09:44.438Z,14.97
2018-07-08T04:12:13.009Z,14.99
2018-07-08T04:14:42.878Z,15.10
2018-07-08T04:17:11.489Z,15.00
2018-07-08T04:19:40.081Z,15.01
2018-07-08T04:22:08.656Z,15.00
2018-07-08T04:24:37.277Z,15.01
2018-07-08T04:27:06.273Z,15.16
2018-07-08T04:29:34.826Z,15.24
2018-07-08T04:32:03.416Z,15.18
2018-07-08T04:34:31.973Z,15.30
2018-07-08T04:37:00.642Z,15.40
2018-07-08T04:39:30.864Z,15.38
2018-07-08T04:41:59.413Z,15.19
2018-07-08T04:44:27.960Z,15.43
2018-07-08T04:46:56.521Z,15.45
2018-07-08T04:49:25.894Z,15.54
2018-07-08T04:51:54.902Z,15.53
2018-07-08T04:54:23.502Z,15.57
2018-07-08T04:56:52.160Z,15.71
2018-07-08T04:59:21.610Z,15.82
2018-07-08T05:01:50.729Z,15.65
2018-07-08T05:04:19.318Z,15.69
2018-07-08T05:06:48.124Z,15.75
2018-07-08T05:09:17.054Z,15.87
2018-07-08T05:11:45.722Z,16.05
2018-07-08T05:14:14.528Z,16.01
2018-07-08T05:16:43.264Z,16.15
2018-07-08T05:19:13.155Z,16.20
2018-07-08T05:21:41.916Z,16.40
2018-07-08T05:24:10.938Z,16.51
2018-07-08T05:26:42.161Z,16.66
2018-07-08T05:29:12.793Z,16.68
2018-07-08T05:31:41.400Z,17.02
2018-07-08T05:34:09.941Z,17.18
2018-07-08T05:36:38.583Z,17.32
2018-07-08T05:39:08.179Z,17.47
2018-07-08T05:41:37.266Z,17.60
2018-07-08T05:44:05.874Z,17.59
2018-07-08T05:46:34.457Z,17.87
2018-07-08T05:49:03.389Z,17.76
2018-07-08T05:51:32.902Z,17.77
2018-07-08T05:54:01.442Z,17.91
2018-07-08T05:56:30.173Z,18.22
2018-07-08T05:58:58.753Z,18.21
2018-07-08T06:01:27.321Z,18.30
2018-07-08T06:03:55.885Z,18.64
2018-07-08T06:06:24.526Z,18.97
2018-07-08T06:08:53.102Z,19.28
2018-07-08T06:11:21.677Z,19.56
2018-07-08T06:13:50.526Z,19.24
2018-07-08T06:16:19.089Z,19.02
2018-07-08T06:18:47.638Z,18.84
2018-07-08T06:21:16.212Z,19.01
2018-07-08T06:23:45.446Z,19.16
2018-07-08T06:26:14.100Z,19.49
2018-07-08T06:28:42.671Z,19.68
2018-07-08T06:31:12.161Z,19.78
2018-07-08T06:33:40.716Z,19.98
2018-07-08T06:36:10.540Z,20.03
2018-07-08T06:38:39.078Z,20.43
2018-07-08T06:41:07.717Z,20.90
2018-07-08T06:43:36.305Z,21.14
2018-07-08T06:46:04.913Z,20.84
2018-07-08T06:48:43.384Z,20.91
2018-07-08T06:51:11.995Z,21.44
2018-07-08T06:53:40.541Z,21.70
2018-07-08T06:56:09.184Z,21.71
2018-07-08T06:58:37.848Z,21.52
2018-07-08T07:01:06.697Z,21.92
2018-07-08T07:03:35.234Z,22.18
2018-07-08T07:06:05.096Z,22.45
2018-07-08T07:11:01.103Z,22.41
2018-07-08T07:13:29.673Z,22.56
2018-07-08T07:15:58.316Z,22.49
2018-07-08T07:18:26.885Z,22.57
2018-07-08T07:20:55.473Z,22.71
2018-07-08T07:23:24.062Z,23.19
2018-07-08T07:25:53.049Z,23.29
2018-07-08T07:28:25.477Z,23.31
2018-07-08T07:30:54.037Z,23.62
2018-07-08T07:33:22.610Z,23.85
2018-07-08T07:35:51.181Z,24.12
2018-07-08T07:38:19.838Z,24.49
2018-07-08T07:40:49.273Z,24.19
2018-07-08T07:43:17.914Z,24.56
2018-07-08T07:45:46.496Z,24.47
2018-07-08T07:48:15.082Z,24.88
2018-07-08T07:50:43.618Z,24.89
2018-07-08T07:53:12.550Z,25.01
2018-07-08T07:55:41.117Z,25.14
2018-07-08T07:58:09.688Z,25.21
2018-07-08T08:00:38.253Z,25.87
2018-07-08T08:03:08.941Z,26.01
2018-07-08T08:05:37.537Z,26.28
2018-07-08T08:08:06.573Z,27.00
2018-07-08T08:10:37.460Z,27.68
2018-07-08T08:13:07.035Z,28.23
2018-07-08T08:15:36.670Z,30.24
2018-07-08T08:18:05.488Z,32.28
2018-07-08T08:20:34.013Z,32.75
2018-07-08T08:23:02.550Z,32.67
2018-07-08T08:25:31.053Z,31.64
2018-07-08T08:27:59.614Z,31.42
2018-07-08T08:30:28.155Z,31.40
2018-07-08T08:33:02.928Z,31.44
2018-07-08T08:35:31.540Z,32.77
2018-07-08T08:38:00.594Z,33.27
2018-07-08T08:40:30.494Z,34.42
2018-07-08T08:42:59.127Z,36.49
2018-07-08T08:45:29.171Z,35.70
2018-07-08T08:47:57.954Z,32.57
2018-07-08T08:50:30.293Z,33.00
2018-07-08T08:52:58.942Z,33.01
2018-07-08T08:55:27.475Z,34.23
2018-07-08T08:57:56.058Z,35.55
2018-07-08T09:00:24.538Z,37.64
2018-07-08T09:02:53.692Z,38.57
2018-07-08T09:05:22.225Z,38.27
2018-07-08T09:07:50.734Z,38.78
2018-07-08T09:10:19.338Z,38.62
2018-07-08T09:12:47.930Z,38.18
2018-07-08T09:15:16.477Z,39.78
2018-07-08T09:17:44.956Z,38.29
2018-07-08T09:20:13.482Z,37.86
2018-07-08T09:22:41.997Z,37.10
2018-07-08T09:25:10.514Z,34.97
2018-07-08T09:27:39.001Z,32.95
2018-07-08T09:30:07.564Z,32.87
2018-07-08T09:32:36.078Z,32.00
2018-07-08T09:35:04.657Z,32.19
2018-07-08T09:37:33.150Z,33.33
2018-07-08T09:40:01.735Z,32.57
2018-07-08T09:42:30.234Z,30.41
2018-07-08T09:44:58.768Z,28.97
2018-07-08T09:47:27.316Z,28.92
2018-07-08T09:49:55.833Z,30.44
2018-07-08T09:52:24.609Z,31.67
2018-07-08T09:54:53.147Z,31.23
2018-07-08T09:57:21.643Z,31.44
2018-07-08T09:59:50.209Z,31.29
2018-07-08T10:02:18.909Z,32.52
2018-07-08T10:04:47.470Z,33.84
2018-07-08T10:07:15.987Z,34.47
2018-07-08T10:09:44.498Z,34.18
2018-07-08T10:12:13.033Z,35.60
2018-07-08T10:14:41.566Z,35.47
2018-07-08T10:17:10.083Z,33.88
2018-07-08T10:19:38.753Z,33.88
2018-07-08T10:22:07.167Z,35.76
2018-07-08T10:24:35.689Z,37.84
2018-07-08T10:27:14.344Z,38.43
2018-07-08T10:29:42.921Z,38.32
2018-07-08T10:32:11.417Z,38.33
2018-07-08T10:34:40.958Z,38.04
2018-07-08T10:37:09.462Z,37.77
2018-07-08T10:39:38.037Z,37.81
2018-07-08T10:42:07.266Z,38.08
2018-07-08T10:44:35.758Z,38.70
2018-07-08T10:47:04.271Z,38.92
2018-07-08T10:49:32.793Z,38.58
2018-07-08T10:52:01.316Z,36.76
2018-07-08T10:54:31.455Z,38.68
2018-07-08T10:57:00.049Z,39.38
2018-07-08T10:59:28.592Z,39.63
2018-07-08T11:01:59.390Z,39.56
2018-07-08T11:04:28.062Z,40.14
2018-07-08T11:06:56.875Z,40.15
2018-07-08T11:09:25.415Z,41.09
2018-07-08T11:11:53.969Z,40.71
2018-07-08T11:14:27.136Z,39.98
2018-07-08T11:16:55.676Z,40.07
2018-07-08T11:19:24.158Z,39.24
2018-07-08T11:21:52.767Z,39.66
2018-07-08T11:24:23.186Z,38.78
2018-07-08T11:26:51.688Z,39.32
2018-07-08T11:29:20.199Z,39.03
2018-07-08T11:31:48.722Z,37.83
2018-07-08T11:34:17.229Z,37.84
2018-07-08T11:36:46.027Z,36.81
2018-07-08T11:39:14.545Z,36.11
2018-07-08T11:41:43.105Z,36.83
2018-07-08T11:44:11.599Z,36.32
2018-07-08T11:46:40.136Z,37.01
2018-07-08T11:49:08.994Z,38.69
2018-07-08T11:51:37.500Z,38.92
2018-07-08T11:54:06.357Z,37.66
2018-07-08T11:56:34.870Z,38.62
2018-07-08T11:59:03.342Z,38.49
2018-07-08T12:01:31.862Z,37.95
2018-07-08T12:04:00.340Z,38.30
2018-07-08T12:06:28.930Z,38.24
2018-07-08T12:08:57.357Z,37.42
2018-07-08T12:11:25.875Z,37.07
2018-07-08T12:13:55.325Z,36.21
2018-07-08T12:16:23.859Z,36.45
2018-07-08T12:18:52.348Z,36.11
2018-07-08T12:21:20.924Z,35.20
2018-07-08T12:23:49.981Z,35.27
2018-07-08T12:26:18.667Z,36.16
2018-07-08T12:28:47.192Z,36.18
2018-07-08T12:31:15.753Z,36.07
2018-07-08T12:33:44.437Z,36.49
2018-07-08T12:36:12.918Z,36.64
2018-07-08T12:38:41.480Z,36.58
2018-07-08T12:41:09.954Z,36.99
2018-07-08T12:43:38.487Z,36.36
2018-07-08T12:46:06.981Z,36.47
2018-07-08T12:48:35.660Z,37.20
2018-07-08T12:51:04.229Z,36.51
2018-07-08T12:53:32.782Z,37.01
2018-07-08T12:56:01.393Z,36.75
2018-07-08T12:58:29.975Z,37.42
2018-07-08T13:01:00.808Z,37.14
2018-07-08T13:03:29.449Z,38.05
2018-07-08T13:05:57.924Z,37.74
2018-07-08T13:08:26.563Z,36.02
2018-07-08T13:10:55.081Z,35.52
2018-07-08T13:13:23.572Z,35.52
2018-07-08T13:15:52.050Z,35.87
2018-07-08T13:18:20.556Z,36.81
2018-07-08T13:20:49.023Z,38.17
2018-07-08T13:23:17.521Z,36.98
2018-07-08T13:25:46.013Z,34.86
2018-07-08T13:28:14.599Z,35.82
2018-07-08T13:30:43.093Z,36.38
2018-07-08T13:33:13.741Z,37.00
2018-07-08T13:35:42.242Z,34.95
2018-07-08T13:38:11.017Z,35.70
2018-07-08T13:40:40.090Z,36.62
2018-07-08T13:43:08.624Z,35.38
2018-07-08T13:45:37.191Z,35.98
2018-07-08T13:48:06.008Z,36.47
2018-07-08T13:50:34.498Z,35.49
2018-07-08T13:53:03.502Z,35.07
2018-07-08T13:55:31.968Z,34.89
2018-07-08T13:58:00.707Z,35.18
2018-07-08T14:00:29.169Z,34.63
2018-07-08T14:02:57.657Z,33.70
2018-07-08T14:05:26.592Z,33.93
2018-07-08T14:07:55.361Z,34.03
2018-07-08T14:10:23.854Z,33.76
2018-07-08T14:12:52.352Z,33.25
2018-07-08T14:15:20.836Z,33.30
2018-07-08T14:17:49.288Z,33.24
2018-07-08T14:20:17.852Z,33.72
2018-07-08T14:22:46.197Z,33.94
2018-07-08T14:25:14.683Z,34.17
2018-07-08T14:27:43.176Z,34.26
2018-07-08T14:30:11.628Z,33.46
2018-07-08T14:32:40.062Z,35.26
2018-07-08T14:35:08.633Z,37.03
2018-07-08T14:37:37.112Z,37.76
2018-07-08T14:40:06.505Z,38.22
2018-07-08T14:42:34.953Z,36.75
2018-07-08T14:45:03.494Z,37.25
2018-07-08T14:47:31.933Z,36.85
2018-07-08T14:50:00.482Z,36.08
2018-07-08T14:52:28.961Z,34.40
2018-07-08T14:54:57.476Z,34.23
2018-07-08T14:57:25.923Z,33.81
2018-07-08T14:59:54.417Z,33.14
2018-07-08T15:02:22.844Z,32.00
2018-07-08T15:04:51.345Z,31.53
2018-07-08T15:07:19.858Z,32.00
2018-07-08T15:09:49.249Z,32.25
2018-07-08T15:12:17.700Z,32.07
2018-07-08T15:14:46.188Z,32.77
2018-07-08T15:17:14.695Z,33.84
2018-07-08T15:19:43.222Z,33.18
2018-07-08T15:22:11.702Z,32.27
2018-07-08T15:24:40.327Z,33.19
2018-07-08T15:27:10.532Z,34.84
2018-07-08T15:29:39.177Z,35.89
2018-07-08T15:32:07.640Z,35.97
2018-07-08T15:34:36.298Z,36.62
2018-07-08T15:37:04.748Z,36.97
2018-07-08T15:39:33.327Z,37.64
2018-07-08T15:42:01.878Z,36.63
2018-07-08T15:44:30.385Z,36.44
2018-07-08T15:46:58.952Z,37.18
2018-07-08T15:49:27.475Z,35.37
2018-07-08T15:51:55.903Z,33.78
2018-07-08T15:54:24.425Z,32.79
2018-07-08T15:56:53.045Z,32.62
2018-07-08T15:59:22.932Z,32.02
2018-07-08T16:01:51.535Z,32.03
2018-07-08T16:04:20.082Z,31.83
2018-07-08T16:06:48.598Z,31.27
2018-07-08T16:09:18.122Z,30.97
2018-07-08T16:11:46.746Z,30.28
2018-07-08T16:14:15.262Z,29.87
2018-07-08T16:16:43.813Z,29.72
2018-07-08T16:19:14.561Z,29.53
2018-07-08T16:21:43.076Z,29.23
2018-07-08T16:24:11.574Z,29.55
2018-07-08T16:26:40.078Z,30.99
2018-07-08T16:29:08.559Z,32.53
2018-07-08T16:31:37.087Z,33.00
2018-07-08T16:34:05.608Z,31.88
2018-07-08T16:36:34.093Z,31.13
2018-07-08T16:39:02.613Z,30.34
2018-07-08T16:41:32.150Z,29.80
2018-07-08T16:44:03.148Z,29.51
2018-07-08T16:46:35.369Z,28.98
2018-07-08T16:49:03.900Z,29.11
2018-07-08T16:51:32.393Z,29.31
2018-07-08T16:54:00.900Z,29.37
2018-07-08T16:56:29.395Z,28.98
2018-07-08T16:58:57.966Z,28.82
2018-07-08T17:01:26.477Z,28.79
2018-07-08T17:03:54.949Z,28.54
2018-07-08T17:06:23.490Z,29.12
2018-07-08T17:08:52.671Z,29.32
2018-07-08T17:11:21.188Z,29.24
2018-07-08T17:13:49.694Z,28.82
2018-07-08T17:16:18.259Z,28.82
2018-07-08T17:18:46.767Z,28.83
2018-07-08T17:21:15.273Z,28.79
2018-07-08T17:23:43.740Z,28.65
2018-07-08T17:26:12.257Z,28.60
2018-07-08T17:28:40.778Z,28.45
2018-07-08T17:31:09.347Z,28.05
2018-07-08T17:33:38.753Z,27.97
2018-07-08T17:36:07.269Z,27.84
2018-07-08T17:38:35.771Z,27.52
2018-07-08T17:41:04.461Z,27.47
2018-07-08T17:43:33.009Z,27.24
2018-07-08T17:46:01.859Z,27.05
2018-07-08T17:48:30.450Z,27.00
2018-07-08T17:50:59.056Z,27.14
2018-07-08T17:53:27.599Z,26.84
2018-07-08T17:55:56.071Z,26.62
2018-07-08T17:58:24.591Z,26.51
2018-07-08T18:00:53.117Z,26.44
2018-07-08T18:03:21.685Z,26.57
2018-07-08T18:05:51.117Z,26.35
2018-07-08T18:08:19.658Z,26.41
2018-07-08T18:10:48.157Z,26.30
2018-07-08T18:13:17.121Z,26.30
2018-07-08T18:15:45.630Z,26.27
2018-07-08T18:18:14.185Z,26.32
2018-07-08T18:20:42.685Z,26.21
2018-07-08T18:23:11.235Z,26.08
2018-07-08T18:25:39.761Z,26.16
2018-07-08T18:28:08.258Z,25.88
2018-07-08T18:30:37.509Z,25.85
2018-07-08T18:33:06.654Z,25.73
2018-07-08T18:35:35.181Z,25.72
2018-07-08T18:38:03.781Z,25.61
2018-07-08T18:40:32.629Z,25.54
2018-07-08T18:43:01.569Z,25.40
2018-07-08T18:45:30.119Z,25.25
2018-07-08T18:47:58.625Z,25.20
2018-07-08T18:50:27.110Z,25.09
2018-07-08T18:52:55.636Z,25.12
2018-07-08T18:55:24.159Z,24.93
2018-07-08T18:57:52.718Z,24.86
2018-07-08T19:00:21.181Z,24.80
2018-07-08T19:02:49.680Z,24.69
2018-07-08T19:05:18.156Z,24.59
2018-07-08T19:07:46.680Z,24.42
2018-07-08T19:10:15.125Z,24.34
2018-07-08T19:12:43.650Z,24.36
2018-07-08T19:15:12.133Z,24.29
2018-07-08T19:17:40.622Z,24.06
2018-07-08T19:20:09.093Z,23.97
2018-07-08T19:22:37.641Z,23.96
2018-07-08T19:25:06.135Z,23.85
2018-07-08T19:27:34.568Z,23.69
2018-07-08T19:30:03.344Z,23.64
2018-07-08T19:32:32.269Z,23.56
2018-07-08T19:35:01.181Z,23.54
2018-07-08T19:37:30.264Z,23.50
2018-07-08T19:39:59.773Z,23.41
2018-07-08T19:42:28.257Z,23.34
2018-07-08T19:44:57.461Z,23.34
2018-07-08T19:47:25.957Z,23.24
2018-07-08T19:49:54.672Z,23.25
2018-07-08T19:52:23.225Z,23.25
2018-07-08T19:54:52.034Z,23.13
2018-07-08T19:57:20.639Z,23.14
2018-07-08T19:59:49.590Z,23.11
2018-07-08T20:02:18.077Z,23.12
2018-07-08T20:04:47.354Z,23.01
2018-07-08T20:07:16.218Z,22.93
2018-07-08T20:09:44.790Z,22.98
2018-07-08T20:12:13.729Z,22.87
2018-07-08T20:14:42.341Z,22.82
2018-07-08T20:17:10.915Z,22.85
2018-07-08T20:19:39.497Z,22.83
2018-07-08T20:22:08.326Z,22.76
2018-07-08T20:24:36.878Z,22.71
2018-07-08T20:27:05.786Z,22.73
2018-07-08T20:29:34.614Z,22.72
2018-07-08T20:32:03.172Z,22.68
2018-07-08T20:34:31.828Z,22.53
2018-07-08T20:37:00.433Z,22.46
2018-07-08T20:39:28.997Z,22.48
2018-07-08T20:41:57.574Z,22.34
2018-07-08T20:44:26.421Z,22.19
2018-07-08T20:46:55.097Z,22.17
2018-07-08T20:49:24.006Z,22.01
2018-07-08T20:51:52.645Z,21.98
2018-07-08T20:54:21.240Z,21.96
2018-07-08T20:56:50.120Z,21.87
2018-07-08T20:59:19.248Z,21.73
2018-07-08T21:01:47.733Z,21.68
2018-07-08T21:04:16.268Z,21.70
2018-07-08T21:06:45.213Z,21.65
2018-07-08T21:09:15.186Z,21.54
2018-07-08T21:11:43.743Z,21.45
2018-07-08T21:14:12.278Z,21.31
2018-07-08T21:16:40.857Z,21.16
2018-07-08T21:19:09.358Z,21.03
2018-07-08T21:21:38.065Z,20.91
2018-07-08T21:24:06.655Z,20.86
2018-07-08T21:26:35.403Z,20.83
2018-07-08T21:29:04.058Z,20.82
2018-07-08T21:31:32.625Z,20.72
2018-07-08T21:34:01.454Z,20.74
2018-07-08T21:36:30.046Z,20.64
2018-07-08T21:38:58.562Z,20.60
2018-07-08T21:41:27.146Z,20.48
2018-07-08T21:43:55.623Z,20.45
2018-07-08T21:46:24.697Z,20.40
2018-07-08T21:48:53.203Z,20.28
2018-07-08T21:51:21.786Z,20.24
2018-07-08T21:53:50.350Z,20.28
2018-07-08T21:56:18.938Z,20.15
2018-07-08T21:58:47.402Z,20.12
2018-07-08T22:01:17.323Z,20.08
2018-07-08T22:03:46.483Z,20.07
2018-07-08T22:06:15.804Z,20.04
2018-07-08T22:08:44.389Z,20.00
2018-07-08T22:11:12.904Z,19.87
2018-07-08T22:13:41.833Z,19.91
2018-07-08T22:16:10.386Z,19.90
2018-07-08T22:18:39.205Z,19.83
2018-07-08T22:21:08.745Z,19.79
2018-07-08T22:23:37.350Z,19.81
2018-07-08T22:26:06.014Z,19.76
2018-07-08T22:28:34.544Z,19.67
2018-07-08T22:31:03.625Z,19.67
2018-07-08T22:33:32.145Z,19.60
2018-07-08T22:36:00.674Z,19.58
2018-07-08T22:38:29.614Z,19.55
2018-07-08T22:40:58.201Z,19.55
2018-07-08T22:43:26.696Z,19.62
2018-07-08T22:45:55.198Z,19.54
2018-07-08T22:48:23.731Z,19.47
2018-07-08T22:50:52.217Z,19.51
2018-07-08T22:53:20.781Z,19.48
2018-07-08T22:55:49.331Z,19.43
2018-07-08T22:58:17.833Z,19.37
2018-07-08T23:00:57.674Z,19.33
2018-07-08T23:03:48.576Z,19.29
2018-07-08T23:06:18.492Z,19.20
2018-07-08T23:08:47.109Z,19.12
2018-07-08T23:11:15.633Z,19.06
2018-07-08T23:13:44.825Z,18.99
2018-07-08T23:16:13.364Z,18.93
2018-07-08T23:18:41.873Z,18.86
2018-07-08T23:21:10.482Z,18.82
2018-07-08T23:23:39.017Z,18.88
2018-07-08T23:26:07.742Z,18.86
2018-07-08T23:28:37.071Z,18.85
2018-07-08T23:31:06.245Z,18.81
2018-07-08T23:33:34.829Z,18.68
2018-07-08T23:36:04.125Z,18.68
2018-07-08T23:38:32.981Z,18.62
2018-07-08T23:41:02.425Z,18.60
2018-07-08T23:43:31.340Z,18.60
2018-07-08T23:46:00.521Z,18.51
2018-07-08T23:48:29.050Z,18.45
2018-07-08T23:50:57.652Z,18.61
2018-07-08T23:53:26.309Z,18.48
2018-07-08T23:55:55.137Z,18.33
2018-07-08T23:58:23.703Z,18.34
